sensor_id;sensor_type;location;lat;lon;timestamp;temperature;humidity
8664;DHT22;4369;47.842;13.096;2023-01-19T00:00:20;2.30;99.90
8664;DHT22;4369;47.842;13.096;2023-01-19T00:02:47;2.20;99.90
8664;DHT22;4369;47.842;13.096;2023-01-19T00:05:15;2.20;99.90
8664;DHT22;4369;47.842;13.096;2023-01-19T00:07:42;2.20;99.90
8664;DHT22;4369;47.842;13.096;2023-01-19T00:10:10;2.20;99.90
8664;DHT22;4369;47.842;13.096;2023-01-19T00:12:37;2.20;99.90
8664;DHT22;4369;47.842;13.096;2023-01-19T00:15:06;2.10;99.90
8664;DHT22;4369;47.842;13.096;2023-01-19T00:17:33;2.10;99.90
8664;DHT22;4369;47.842;13.096;2023-01-19T00:20:00;2.00;99.90
8664;DHT22;4369;47.842;13.096;2023-01-19T00:22:28;2.10;99.90
8664;DHT22;4369;47.842;13.096;2023-01-19T00:24:55;2.10;99.90
8664;DHT22;4369;47.842;13.096;2023-01-19T00:27:22;2.10;99.90
8664;DHT22;4369;47.842;13.096;2023-01-19T00:29:49;2.10;99.90
8664;DHT22;4369;47.842;13.096;2023-01-19T00:32:17;2.00;99.90
8664;DHT22;4369;47.842;13.096;2023-01-19T00:34:44;1.90;99.90
8664;DHT22;4369;47.842;13.096;2023-01-19T00:37:14;1.90;99.90
8664;DHT22;4369;47.842;13.096;2023-01-19T00:39:41;1.90;99.90
8664;DHT22;4369;47.842;13.096;2023-01-19T00:42:10;1.90;99.90
8664;DHT22;4369;47.842;13.096;2023-01-19T00:45:00;1.80;99.90
8664;DHT22;4369;47.842;13.096;2023-01-19T00:47:28;1.60;99.90
8664;DHT22;4369;47.842;13.096;2023-01-19T00:49:56;1.50;99.90
8664;DHT22;4369;47.842;13.096;2023-01-19T00:52:23;1.30;99.90
8664;DHT22;4369;47.842;13.096;2023-01-19T00:54:50;1.30;99.90
8664;DHT22;4369;47.842;13.096;2023-01-19T00:57:17;1.30;99.90
8664;DHT22;4369;47.842;13.096;2023-01-19T00:59:44;1.30;99.90
8664;DHT22;4369;47.842;13.096;2023-01-19T01:02:11;1.30;99.90
8664;DHT22;4369;47.842;13.096;2023-01-19T01:04:39;1.40;99.90
8664;DHT22;4369;47.842;13.096;2023-01-19T01:07:06;1.40;99.90
8664;DHT22;4369;47.842;13.096;2023-01-19T01:09:33;1.40;99.90
8664;DHT22;4369;47.842;13.096;2023-01-19T01:11:59;1.20;99.90
8664;DHT22;4369;47.842;13.096;2023-01-19T01:14:26;1.20;99.90
8664;DHT22;4369;47.842;13.096;2023-01-19T01:16:54;1.20;99.90
8664;DHT22;4369;47.842;13.096;2023-01-19T01:19:21;1.20;99.90
8664;DHT22;4369;47.842;13.096;2023-01-19T01:21:49;1.30;99.90
8664;DHT22;4369;47.842;13.096;2023-01-19T01:24:16;1.40;99.90
8664;DHT22;4369;47.842;13.096;2023-01-19T01:26:43;1.40;99.90
8664;DHT22;4369;47.842;13.096;2023-01-19T01:29:10;1.40;99.90
8664;DHT22;4369;47.842;13.096;2023-01-19T01:31:37;1.40;99.90
8664;DHT22;4369;47.842;13.096;2023-01-19T01:34:04;1.50;99.90
8664;DHT22;4369;47.842;13.096;2023-01-19T01:36:31;1.30;99.90
8664;DHT22;4369;47.842;13.096;2023-01-19T01:38:59;1.30;99.90
8664;DHT22;4369;47.842;13.096;2023-01-19T01:41:26;1.10;99.90
8664;DHT22;4369;47.842;13.096;2023-01-19T01:43:55;1.10;99.90
8664;DHT22;4369;47.842;13.096;2023-01-19T01:46:24;1.00;99.90
8664;DHT22;4369;47.842;13.096;2023-01-19T01:48:53;0.80;99.90
8664;DHT22;4369;47.842;13.096;2023-01-19T01:51:25;0.80;99.90
8664;DHT22;4369;47.842;13.096;2023-01-19T01:54:13;0.80;99.90
8664;DHT22;4369;47.842;13.096;2023-01-19T01:56:44;0.80;99.90
8664;DHT22;4369;47.842;13.096;2023-01-19T01:59:14;0.80;99.90
8664;DHT22;4369;47.842;13.096;2023-01-19T02:01:50;0.80;99.90
8664;DHT22;4369;47.842;13.096;2023-01-19T02:04:37;0.70;99.90
8664;DHT22;4369;47.842;13.096;2023-01-19T02:07:03;0.60;99.90
8664;DHT22;4369;47.842;13.096;2023-01-19T02:09:50;0.50;99.90
8664;DHT22;4369;47.842;13.096;2023-01-19T02:12:34;0.40;99.90
8664;DHT22;4369;47.842;13.096;2023-01-19T02:15:19;0.40;99.90
8664;DHT22;4369;47.842;13.096;2023-01-19T02:17:46;0.40;99.90
8664;DHT22;4369;47.842;13.096;2023-01-19T02:20:13;0.50;99.90
8664;DHT22;4369;47.842;13.096;2023-01-19T02:22:45;0.40;99.90
8664;DHT22;4369;47.842;13.096;2023-01-19T02:25:15;0.40;99.90
8664;DHT22;4369;47.842;13.096;2023-01-19T02:27:43;0.50;99.90
8664;DHT22;4369;47.842;13.096;2023-01-19T02:30:12;0.50;99.90
8664;DHT22;4369;47.842;13.096;2023-01-19T02:32:41;0.60;99.90
8664;DHT22;4369;47.842;13.096;2023-01-19T02:35:08;0.50;99.90
8664;DHT22;4369;47.842;13.096;2023-01-19T02:37:36;0.40;99.90
8664;DHT22;4369;47.842;13.096;2023-01-19T02:40:07;0.50;99.90
8664;DHT22;4369;47.842;13.096;2023-01-19T02:42:38;0.60;99.90
8664;DHT22;4369;47.842;13.096;2023-01-19T02:45:09;0.70;99.90
8664;DHT22;4369;47.842;13.096;2023-01-19T02:47:38;0.70;99.90
8664;DHT22;4369;47.842;13.096;2023-01-19T02:50:36;0.70;99.90
8664;DHT22;4369;47.842;13.096;2023-01-19T02:53:23;0.50;99.90
8664;DHT22;4369;47.842;13.096;2023-01-19T02:55:55;0.60;99.90
8664;DHT22;4369;47.842;13.096;2023-01-19T02:58:29;0.70;99.90
8664;DHT22;4369;47.842;13.096;2023-01-19T03:01:05;0.50;99.90
8664;DHT22;4369;47.842;13.096;2023-01-19T03:03:42;0.50;99.90
8664;DHT22;4369;47.842;13.096;2023-01-19T03:06:22;0.50;99.90
8664;DHT22;4369;47.842;13.096;2023-01-19T03:08:53;0.50;99.90
8664;DHT22;4369;47.842;13.096;2023-01-19T03:11:24;0.60;99.90
8664;DHT22;4369;47.842;13.096;2023-01-19T03:13:57;0.60;99.90
8664;DHT22;4369;47.842;13.096;2023-01-19T03:16:31;0.50;99.90
8664;DHT22;4369;47.842;13.096;2023-01-19T03:19:04;0.40;99.90
8664;DHT22;4369;47.842;13.096;2023-01-19T03:21:35;0.40;99.90
8664;DHT22;4369;47.842;13.096;2023-01-19T03:24:05;0.40;99.90
8664;DHT22;4369;47.842;13.096;2023-01-19T03:26:36;0.40;99.90
8664;DHT22;4369;47.842;13.096;2023-01-19T03:29:07;0.20;99.90
8664;DHT22;4369;47.842;13.096;2023-01-19T03:31:36;0.30;99.90
8664;DHT22;4369;47.842;13.096;2023-01-19T03:34:05;0.20;99.90
8664;DHT22;4369;47.842;13.096;2023-01-19T03:36:35;0.10;99.90
8664;DHT22;4369;47.842;13.096;2023-01-19T03:39:04;0.00;99.90
8664;DHT22;4369;47.842;13.096;2023-01-19T03:41:34;0.00;99.90
8664;DHT22;4369;47.842;13.096;2023-01-19T03:44:03;0.00;99.90
8664;DHT22;4369;47.842;13.096;2023-01-19T03:46:33;-0.10;99.90
8664;DHT22;4369;47.842;13.096;2023-01-19T03:49:00;0.00;99.90
8664;DHT22;4369;47.842;13.096;2023-01-19T03:51:27;-0.10;99.90
8664;DHT22;4369;47.842;13.096;2023-01-19T03:53:54;0.00;99.90
8664;DHT22;4369;47.842;13.096;2023-01-19T03:56:22;0.00;99.90
8664;DHT22;4369;47.842;13.096;2023-01-19T03:58:50;0.00;99.90
8664;DHT22;4369;47.842;13.096;2023-01-19T04:01:18;0.10;99.90
8664;DHT22;4369;47.842;13.096;2023-01-19T04:03:48;0.10;99.90
8664;DHT22;4369;47.842;13.096;2023-01-19T04:06:16;0.10;99.90
8664;DHT22;4369;47.842;13.096;2023-01-19T04:08:43;0.10;99.90
8664;DHT22;4369;47.842;13.096;2023-01-19T04:11:09;0.10;99.90
8664;DHT22;4369;47.842;13.096;2023-01-19T04:13:37;0.10;99.90
8664;DHT22;4369;47.842;13.096;2023-01-19T04:16:05;0.20;99.90
8664;DHT22;4369;47.842;13.096;2023-01-19T04:18:33;0.20;99.90
8664;DHT22;4369;47.842;13.096;2023-01-19T04:21:02;0.10;99.90
8664;DHT22;4369;47.842;13.096;2023-01-19T04:23:30;0.20;99.90
8664;DHT22;4369;47.842;13.096;2023-01-19T04:25:58;0.20;99.90
8664;DHT22;4369;47.842;13.096;2023-01-19T04:28:26;0.30;99.90
8664;DHT22;4369;47.842;13.096;2023-01-19T04:30:53;0.30;99.90
8664;DHT22;4369;47.842;13.096;2023-01-19T04:33:20;0.30;99.90
8664;DHT22;4369;47.842;13.096;2023-01-19T04:35:49;0.20;99.90
8664;DHT22;4369;47.842;13.096;2023-01-19T04:38:17;0.20;99.90
8664;DHT22;4369;47.842;13.096;2023-01-19T04:40:45;0.30;99.90
8664;DHT22;4369;47.842;13.096;2023-01-19T04:43:12;0.30;99.90
8664;DHT22;4369;47.842;13.096;2023-01-19T04:45:39;0.30;99.90
8664;DHT22;4369;47.842;13.096;2023-01-19T04:48:08;0.40;99.90
8664;DHT22;4369;47.842;13.096;2023-01-19T04:50:35;0.30;99.90
8664;DHT22;4369;47.842;13.096;2023-01-19T04:53:02;0.40;99.90
8664;DHT22;4369;47.842;13.096;2023-01-19T04:55:30;0.30;99.90
8664;DHT22;4369;47.842;13.096;2023-01-19T04:57:57;0.20;99.90
8664;DHT22;4369;47.842;13.096;2023-01-19T05:00:24;0.30;99.90
8664;DHT22;4369;47.842;13.096;2023-01-19T05:02:51;0.30;99.90
8664;DHT22;4369;47.842;13.096;2023-01-19T05:05:18;0.40;99.90
8664;DHT22;4369;47.842;13.096;2023-01-19T05:07:45;0.40;99.90
8664;DHT22;4369;47.842;13.096;2023-01-19T05:10:11;0.50;99.90
8664;DHT22;4369;47.842;13.096;2023-01-19T05:12:40;0.50;99.90
8664;DHT22;4369;47.842;13.096;2023-01-19T05:15:08;0.60;99.90
8664;DHT22;4369;47.842;13.096;2023-01-19T05:17:36;0.60;99.90
8664;DHT22;4369;47.842;13.096;2023-01-19T05:20:03;0.40;99.90
8664;DHT22;4369;47.842;13.096;2023-01-19T05:22:30;0.50;99.90
8664;DHT22;4369;47.842;13.096;2023-01-19T05:24:57;0.40;99.90
8664;DHT22;4369;47.842;13.096;2023-01-19T05:27:26;0.20;99.90
8664;DHT22;4369;47.842;13.096;2023-01-19T05:29:54;0.10;99.90
8664;DHT22;4369;47.842;13.096;2023-01-19T05:32:21;0.20;99.90
8664;DHT22;4369;47.842;13.096;2023-01-19T05:34:48;0.30;99.90
8664;DHT22;4369;47.842;13.096;2023-01-19T05:37:14;0.30;99.90
8664;DHT22;4369;47.842;13.096;2023-01-19T05:39:41;0.20;99.90
8664;DHT22;4369;47.842;13.096;2023-01-19T05:42:08;0.20;99.90
8664;DHT22;4369;47.842;13.096;2023-01-19T05:44:35;0.10;99.90
8664;DHT22;4369;47.842;13.096;2023-01-19T05:47:03;0.10;99.90
8664;DHT22;4369;47.842;13.096;2023-01-19T05:49:30;-0.10;99.90
8664;DHT22;4369;47.842;13.096;2023-01-19T05:51:57;-0.10;99.90
8664;DHT22;4369;47.842;13.096;2023-01-19T05:54:24;-0.30;99.90
8664;DHT22;4369;47.842;13.096;2023-01-19T05:56:51;-0.40;99.90
8664;DHT22;4369;47.842;13.096;2023-01-19T05:59:18;-0.40;99.90
8664;DHT22;4369;47.842;13.096;2023-01-19T06:01:48;-0.50;99.90
8664;DHT22;4369;47.842;13.096;2023-01-19T06:04:17;-0.50;99.90
8664;DHT22;4369;47.842;13.096;2023-01-19T06:06:46;-0.60;99.90
8664;DHT22;4369;47.842;13.096;2023-01-19T06:09:13;-0.70;99.90
8664;DHT22;4369;47.842;13.096;2023-01-19T06:11:40;-0.70;99.90
8664;DHT22;4369;47.842;13.096;2023-01-19T06:14:08;-0.80;99.90
8664;DHT22;4369;47.842;13.096;2023-01-19T06:16:35;-0.80;99.90
8664;DHT22;4369;47.842;13.096;2023-01-19T06:19:02;-0.80;99.90
8664;DHT22;4369;47.842;13.096;2023-01-19T06:21:30;-0.90;99.90
8664;DHT22;4369;47.842;13.096;2023-01-19T06:23:57;-0.90;99.90
8664;DHT22;4369;47.842;13.096;2023-01-19T06:26:24;-0.80;99.90
8664;DHT22;4369;47.842;13.096;2023-01-19T06:28:51;-0.70;99.90
8664;DHT22;4369;47.842;13.096;2023-01-19T06:31:18;-0.60;99.90
8664;DHT22;4369;47.842;13.096;2023-01-19T06:33:45;-0.60;99.90
8664;DHT22;4369;47.842;13.096;2023-01-19T06:36:11;-0.60;99.90
8664;DHT22;4369;47.842;13.096;2023-01-19T06:38:40;-0.60;99.90
8664;DHT22;4369;47.842;13.096;2023-01-19T06:41:06;-0.50;99.90
8664;DHT22;4369;47.842;13.096;2023-01-19T06:43:33;-0.50;99.90
8664;DHT22;4369;47.842;13.096;2023-01-19T06:46:00;-0.50;99.90
8664;DHT22;4369;47.842;13.096;2023-01-19T06:48:28;-0.50;99.90
8664;DHT22;4369;47.842;13.096;2023-01-19T06:50:55;-0.40;99.90
8664;DHT22;4369;47.842;13.096;2023-01-19T06:53:22;-0.30;99.90
8664;DHT22;4369;47.842;13.096;2023-01-19T06:55:57;-0.20;99.90
8664;DHT22;4369;47.842;13.096;2023-01-19T06:58:26;-0.20;99.90
8664;DHT22;4369;47.842;13.096;2023-01-19T07:00:53;-0.10;99.90
8664;DHT22;4369;47.842;13.096;2023-01-19T07:03:21;-0.10;99.90
8664;DHT22;4369;47.842;13.096;2023-01-19T07:05:50;-0.10;99.90
8664;DHT22;4369;47.842;13.096;2023-01-19T07:08:17;-0.20;99.90
8664;DHT22;4369;47.842;13.096;2023-01-19T07:10:44;-0.10;99.90
8664;DHT22;4369;47.842;13.096;2023-01-19T07:13:12;-0.10;99.90
8664;DHT22;4369;47.842;13.096;2023-01-19T07:15:40;0.00;99.90
8664;DHT22;4369;47.842;13.096;2023-01-19T07:18:07;0.10;99.90
8664;DHT22;4369;47.842;13.096;2023-01-19T07:20:35;0.10;99.90
8664;DHT22;4369;47.842;13.096;2023-01-19T07:23:02;0.10;99.90
8664;DHT22;4369;47.842;13.096;2023-01-19T07:25:29;0.00;99.90
8664;DHT22;4369;47.842;13.096;2023-01-19T07:27:56;0.10;99.90
8664;DHT22;4369;47.842;13.096;2023-01-19T07:30:25;0.20;99.90
8664;DHT22;4369;47.842;13.096;2023-01-19T07:32:54;0.20;99.90
8664;DHT22;4369;47.842;13.096;2023-01-19T07:35:21;0.30;99.90
8664;DHT22;4369;47.842;13.096;2023-01-19T07:37:48;0.30;99.90
8664;DHT22;4369;47.842;13.096;2023-01-19T07:40:15;0.40;99.90
8664;DHT22;4369;47.842;13.096;2023-01-19T07:42:45;0.40;99.90
8664;DHT22;4369;47.842;13.096;2023-01-19T07:45:13;0.30;99.90
8664;DHT22;4369;47.842;13.096;2023-01-19T07:47:43;0.30;99.90
8664;DHT22;4369;47.842;13.096;2023-01-19T07:50:10;0.30;99.90
8664;DHT22;4369;47.842;13.096;2023-01-19T07:52:38;0.30;99.90
8664;DHT22;4369;47.842;13.096;2023-01-19T07:55:05;0.30;99.90
8664;DHT22;4369;47.842;13.096;2023-01-19T07:57:32;0.30;99.90
8664;DHT22;4369;47.842;13.096;2023-01-19T07:59:59;0.30;99.90
8664;DHT22;4369;47.842;13.096;2023-01-19T08:02:27;0.40;99.90
8664;DHT22;4369;47.842;13.096;2023-01-19T08:04:56;0.50;99.90
8664;DHT22;4369;47.842;13.096;2023-01-19T08:07:23;0.60;99.90
8664;DHT22;4369;47.842;13.096;2023-01-19T08:09:50;0.60;99.90
8664;DHT22;4369;47.842;13.096;2023-01-19T08:12:17;0.70;99.90
8664;DHT22;4369;47.842;13.096;2023-01-19T08:14:44;0.80;99.90
8664;DHT22;4369;47.842;13.096;2023-01-19T08:17:11;0.80;99.90
8664;DHT22;4369;47.842;13.096;2023-01-19T08:19:38;0.80;99.90
8664;DHT22;4369;47.842;13.096;2023-01-19T08:22:07;0.80;99.90
8664;DHT22;4369;47.842;13.096;2023-01-19T08:24:34;0.80;99.90
8664;DHT22;4369;47.842;13.096;2023-01-19T08:27:01;1.00;99.90
8664;DHT22;4369;47.842;13.096;2023-01-19T08:29:28;1.10;99.90
8664;DHT22;4369;47.842;13.096;2023-01-19T08:31:56;1.10;99.90
8664;DHT22;4369;47.842;13.096;2023-01-19T08:34:24;1.00;99.90
8664;DHT22;4369;47.842;13.096;2023-01-19T08:36:51;1.10;99.90
8664;DHT22;4369;47.842;13.096;2023-01-19T08:39:19;1.20;99.90
8664;DHT22;4369;47.842;13.096;2023-01-19T08:41:48;1.30;99.90
8664;DHT22;4369;47.842;13.096;2023-01-19T08:44:15;1.40;99.90
8664;DHT22;4369;47.842;13.096;2023-01-19T08:46:42;1.50;99.90
8664;DHT22;4369;47.842;13.096;2023-01-19T08:49:09;1.30;99.90
8664;DHT22;4369;47.842;13.096;2023-01-19T08:51:36;1.40;99.90
8664;DHT22;4369;47.842;13.096;2023-01-19T08:54:03;1.40;99.90
8664;DHT22;4369;47.842;13.096;2023-01-19T08:56:32;1.50;99.90
8664;DHT22;4369;47.842;13.096;2023-01-19T08:58:58;1.60;99.90
8664;DHT22;4369;47.842;13.096;2023-01-19T09:01:25;1.60;99.90
8664;DHT22;4369;47.842;13.096;2023-01-19T09:03:52;1.70;99.90
8664;DHT22;4369;47.842;13.096;2023-01-19T09:06:19;1.60;99.90
8664;DHT22;4369;47.842;13.096;2023-01-19T09:08:46;1.40;99.90
8664;DHT22;4369;47.842;13.096;2023-01-19T09:11:14;1.20;99.90
8664;DHT22;4369;47.842;13.096;2023-01-19T09:13:43;1.20;99.90
8664;DHT22;4369;47.842;13.096;2023-01-19T09:16:10;1.30;99.90
8664;DHT22;4369;47.842;13.096;2023-01-19T09:18:39;1.30;99.90
8664;DHT22;4369;47.842;13.096;2023-01-19T09:21:06;1.40;99.90
8664;DHT22;4369;47.842;13.096;2023-01-19T09:23:33;1.30;99.90
8664;DHT22;4369;47.842;13.096;2023-01-19T09:26:01;1.30;99.90
8664;DHT22;4369;47.842;13.096;2023-01-19T09:28:29;1.40;99.90
8664;DHT22;4369;47.842;13.096;2023-01-19T09:30:57;1.40;99.90
8664;DHT22;4369;47.842;13.096;2023-01-19T09:33:24;1.40;99.90
8664;DHT22;4369;47.842;13.096;2023-01-19T09:35:51;1.30;99.90
8664;DHT22;4369;47.842;13.096;2023-01-19T09:38:19;1.40;99.90
8664;DHT22;4369;47.842;13.096;2023-01-19T09:40:48;1.40;99.90
8664;DHT22;4369;47.842;13.096;2023-01-19T09:43:24;1.50;99.90
8664;DHT22;4369;47.842;13.096;2023-01-19T09:45:59;1.50;99.90
8664;DHT22;4369;47.842;13.096;2023-01-19T09:48:38;1.50;99.90
8664;DHT22;4369;47.842;13.096;2023-01-19T09:51:11;1.40;99.90
8664;DHT22;4369;47.842;13.096;2023-01-19T09:53:47;1.40;99.90
8664;DHT22;4369;47.842;13.096;2023-01-19T09:56:17;1.40;99.90
8664;DHT22;4369;47.842;13.096;2023-01-19T09:58:45;1.50;99.90
8664;DHT22;4369;47.842;13.096;2023-01-19T10:01:23;1.40;99.90
8664;DHT22;4369;47.842;13.096;2023-01-19T10:07:11;1.00;99.90
8664;DHT22;4369;47.842;13.096;2023-01-19T10:09:55;0.80;99.90
8664;DHT22;4369;47.842;13.096;2023-01-19T10:12:42;0.80;99.90
8664;DHT22;4369;47.842;13.096;2023-01-19T10:15:20;0.80;99.90
8664;DHT22;4369;47.842;13.096;2023-01-19T10:18:01;0.50;99.90
8664;DHT22;4369;47.842;13.096;2023-01-19T10:20:35;0.30;99.90
8664;DHT22;4369;47.842;13.096;2023-01-19T10:23:18;0.00;99.90
8664;DHT22;4369;47.842;13.096;2023-01-19T10:25:46;-0.10;99.90
8664;DHT22;4369;47.842;13.096;2023-01-19T10:28:15;-0.40;99.90
8664;DHT22;4369;47.842;13.096;2023-01-19T10:30:45;-0.50;99.90
8664;DHT22;4369;47.842;13.096;2023-01-19T10:33:14;-0.50;99.90
8664;DHT22;4369;47.842;13.096;2023-01-19T10:35:41;-0.50;99.90
8664;DHT22;4369;47.842;13.096;2023-01-19T10:38:12;-0.50;99.90
8664;DHT22;4369;47.842;13.096;2023-01-19T10:40:47;-0.40;99.90
8664;DHT22;4369;47.842;13.096;2023-01-19T10:43:34;-0.30;99.90
8664;DHT22;4369;47.842;13.096;2023-01-19T10:46:04;-0.20;99.90
8664;DHT22;4369;47.842;13.096;2023-01-19T10:48:38;-0.10;99.90
8664;DHT22;4369;47.842;13.096;2023-01-19T10:51:06;0.10;99.90
8664;DHT22;4369;47.842;13.096;2023-01-19T10:53:34;0.20;99.90
8664;DHT22;4369;47.842;13.096;2023-01-19T10:56:13;0.30;99.90
8664;DHT22;4369;47.842;13.096;2023-01-19T10:58:41;0.40;99.90
8664;DHT22;4369;47.842;13.096;2023-01-19T11:01:16;0.50;99.90
8664;DHT22;4369;47.842;13.096;2023-01-19T11:03:45;0.50;99.90
8664;DHT22;4369;47.842;13.096;2023-01-19T11:06:20;0.60;99.90
8664;DHT22;4369;47.842;13.096;2023-01-19T11:08:49;0.80;99.90
8664;DHT22;4369;47.842;13.096;2023-01-19T11:11:17;0.70;99.90
8664;DHT22;4369;47.842;13.096;2023-01-19T11:13:46;0.80;99.90
8664;DHT22;4369;47.842;13.096;2023-01-19T11:16:29;1.00;99.90
8664;DHT22;4369;47.842;13.096;2023-01-19T11:18:58;1.10;99.90
8664;DHT22;4369;47.842;13.096;2023-01-19T11:21:28;1.20;99.90
8664;DHT22;4369;47.842;13.096;2023-01-19T11:23:57;1.30;99.90
8664;DHT22;4369;47.842;13.096;2023-01-19T11:26:26;1.50;99.90
8664;DHT22;4369;47.842;13.096;2023-01-19T11:28:55;1.50;99.90
8664;DHT22;4369;47.842;13.096;2023-01-19T11:31:31;1.60;99.90
8664;DHT22;4369;47.842;13.096;2023-01-19T11:34:00;1.80;99.90
8664;DHT22;4369;47.842;13.096;2023-01-19T11:36:29;1.90;99.90
8664;DHT22;4369;47.842;13.096;2023-01-19T11:38:58;2.10;99.90
8664;DHT22;4369;47.842;13.096;2023-01-19T11:41:27;2.50;99.90
8664;DHT22;4369;47.842;13.096;2023-01-19T11:43:56;2.80;99.90
8664;DHT22;4369;47.842;13.096;2023-01-19T11:46:27;2.70;99.90
8664;DHT22;4369;47.842;13.096;2023-01-19T11:49:03;3.10;99.90
8664;DHT22;4369;47.842;13.096;2023-01-19T11:51:35;3.30;99.90
8664;DHT22;4369;47.842;13.096;2023-01-19T11:54:13;3.40;99.90
8664;DHT22;4369;47.842;13.096;2023-01-19T11:56:43;3.40;99.90
8664;DHT22;4369;47.842;13.096;2023-01-19T11:59:13;3.20;99.90
8664;DHT22;4369;47.842;13.096;2023-01-19T12:01:45;3.20;99.90
8664;DHT22;4369;47.842;13.096;2023-01-19T12:04:16;2.70;99.90
8664;DHT22;4369;47.842;13.096;2023-01-19T12:06:47;2.70;99.90
8664;DHT22;4369;47.842;13.096;2023-01-19T12:09:19;2.80;99.90
8664;DHT22;4369;47.842;13.096;2023-01-19T12:11:51;2.50;99.90
8664;DHT22;4369;47.842;13.096;2023-01-19T12:14:23;2.60;99.90
8664;DHT22;4369;47.842;13.096;2023-01-19T12:16:53;2.70;99.90
8664;DHT22;4369;47.842;13.096;2023-01-19T12:19:25;2.80;99.90
8664;DHT22;4369;47.842;13.096;2023-01-19T12:21:55;2.70;99.90
8664;DHT22;4369;47.842;13.096;2023-01-19T12:24:28;2.60;99.90
8664;DHT22;4369;47.842;13.096;2023-01-19T12:26:58;2.80;99.90
8664;DHT22;4369;47.842;13.096;2023-01-19T12:29:28;2.90;99.90
8664;DHT22;4369;47.842;13.096;2023-01-19T12:32:16;3.00;99.90
8664;DHT22;4369;47.842;13.096;2023-01-19T12:34:47;3.10;99.90
8664;DHT22;4369;47.842;13.096;2023-01-19T12:37:38;3.10;99.90
8664;DHT22;4369;47.842;13.096;2023-01-19T12:40:22;3.00;99.90
8664;DHT22;4369;47.842;13.096;2023-01-19T12:42:58;3.20;99.90
8664;DHT22;4369;47.842;13.096;2023-01-19T12:45:29;2.60;99.90
8664;DHT22;4369;47.842;13.096;2023-01-19T12:47:58;2.80;99.90
8664;DHT22;4369;47.842;13.096;2023-01-19T12:50:31;2.90;99.90
8664;DHT22;4369;47.842;13.096;2023-01-19T12:53:00;3.00;99.90
8664;DHT22;4369;47.842;13.096;2023-01-19T12:55:29;2.80;99.90
8664;DHT22;4369;47.842;13.096;2023-01-19T12:58:00;2.70;99.90
8664;DHT22;4369;47.842;13.096;2023-01-19T13:00:47;2.70;99.90
8664;DHT22;4369;47.842;13.096;2023-01-19T13:03:43;2.80;99.90
8664;DHT22;4369;47.842;13.096;2023-01-19T13:06:11;3.00;99.90
8664;DHT22;4369;47.842;13.096;2023-01-19T13:08:58;3.10;99.90
8664;DHT22;4369;47.842;13.096;2023-01-19T13:11:25;3.40;99.90
8664;DHT22;4369;47.842;13.096;2023-01-19T13:14:33;3.70;99.90
8664;DHT22;4369;47.842;13.096;2023-01-19T13:17:05;3.50;99.90
8664;DHT22;4369;47.842;13.096;2023-01-19T13:19:45;3.80;99.90
8664;DHT22;4369;47.842;13.096;2023-01-19T13:25:34;4.30;99.90
8664;DHT22;4369;47.842;13.096;2023-01-19T13:28:05;4.20;99.90
8664;DHT22;4369;47.842;13.096;2023-01-19T13:30:34;4.40;99.90
8664;DHT22;4369;47.842;13.096;2023-01-19T13:33:05;4.40;99.90
8664;DHT22;4369;47.842;13.096;2023-01-19T13:35:35;4.40;99.90
8664;DHT22;4369;47.842;13.096;2023-01-19T13:38:02;4.40;99.90
8664;DHT22;4369;47.842;13.096;2023-01-19T13:40:36;4.40;99.90
8664;DHT22;4369;47.842;13.096;2023-01-19T13:43:09;4.40;99.90
8664;DHT22;4369;47.842;13.096;2023-01-19T13:45:44;4.50;99.90
8664;DHT22;4369;47.842;13.096;2023-01-19T13:48:15;4.50;99.90
8664;DHT22;4369;47.842;13.096;2023-01-19T13:50:55;4.40;99.90
8664;DHT22;4369;47.842;13.096;2023-01-19T13:53:23;4.40;99.50
8664;DHT22;4369;47.842;13.096;2023-01-19T13:59:05;4.30;99.50
8664;DHT22;4369;47.842;13.096;2023-01-19T14:01:36;4.30;99.90
8664;DHT22;4369;47.842;13.096;2023-01-19T14:04:03;4.30;99.90
8664;DHT22;4369;47.842;13.096;2023-01-19T14:06:33;4.20;99.90
8664;DHT22;4369;47.842;13.096;2023-01-19T14:09:14;4.10;99.90
8664;DHT22;4369;47.842;13.096;2023-01-19T14:11:46;4.10;99.90
8664;DHT22;4369;47.842;13.096;2023-01-19T14:14:30;3.90;99.90
8664;DHT22;4369;47.842;13.096;2023-01-19T14:16:58;3.70;99.90
8664;DHT22;4369;47.842;13.096;2023-01-19T14:19:24;3.50;99.90
8664;DHT22;4369;47.842;13.096;2023-01-19T14:21:59;3.60;99.90
8664;DHT22;4369;47.842;13.096;2023-01-19T14:24:27;3.60;99.90
8664;DHT22;4369;47.842;13.096;2023-01-19T14:27:15;3.60;99.90
8664;DHT22;4369;47.842;13.096;2023-01-19T14:29:45;3.40;99.90
8664;DHT22;4369;47.842;13.096;2023-01-19T14:32:16;3.40;99.90
8664;DHT22;4369;47.842;13.096;2023-01-19T14:34:46;3.30;99.90
8664;DHT22;4369;47.842;13.096;2023-01-19T14:37:22;3.10;99.90
8664;DHT22;4369;47.842;13.096;2023-01-19T14:39:50;3.10;99.90
8664;DHT22;4369;47.842;13.096;2023-01-19T14:42:21;3.10;99.90
8664;DHT22;4369;47.842;13.096;2023-01-19T14:44:52;3.00;99.90
8664;DHT22;4369;47.842;13.096;2023-01-19T14:47:28;2.90;99.90
8664;DHT22;4369;47.842;13.096;2023-01-19T14:49:58;2.80;99.90
8664;DHT22;4369;47.842;13.096;2023-01-19T14:52:29;2.80;99.90
8664;DHT22;4369;47.842;13.096;2023-01-19T14:54:58;2.80;99.90
8664;DHT22;4369;47.842;13.096;2023-01-19T14:57:27;2.80;99.90
8664;DHT22;4369;47.842;13.096;2023-01-19T14:59:55;2.80;99.90
8664;DHT22;4369;47.842;13.096;2023-01-19T15:02:22;2.70;99.90
8664;DHT22;4369;47.842;13.096;2023-01-19T15:04:49;2.70;99.90
8664;DHT22;4369;47.842;13.096;2023-01-19T15:07:22;2.60;99.90
8664;DHT22;4369;47.842;13.096;2023-01-19T15:09:49;2.60;99.90
8664;DHT22;4369;47.842;13.096;2023-01-19T15:12:17;2.50;99.90
8664;DHT22;4369;47.842;13.096;2023-01-19T15:14:45;2.40;99.90
8664;DHT22;4369;47.842;13.096;2023-01-19T15:17:18;2.40;99.90
8664;DHT22;4369;47.842;13.096;2023-01-19T15:19:51;2.30;99.90
8664;DHT22;4369;47.842;13.096;2023-01-19T15:22:18;2.20;99.90
8664;DHT22;4369;47.842;13.096;2023-01-19T15:24:46;2.20;99.90
8664;DHT22;4369;47.842;13.096;2023-01-19T15:27:14;2.20;99.90
8664;DHT22;4369;47.842;13.096;2023-01-19T15:29:41;2.10;99.90
8664;DHT22;4369;47.842;13.096;2023-01-19T15:32:10;2.10;99.90
8664;DHT22;4369;47.842;13.096;2023-01-19T15:34:39;2.00;99.90
8664;DHT22;4369;47.842;13.096;2023-01-19T15:37:06;1.90;99.90
8664;DHT22;4369;47.842;13.096;2023-01-19T15:39:34;1.80;99.90
8664;DHT22;4369;47.842;13.096;2023-01-19T15:42:01;1.70;99.90
8664;DHT22;4369;47.842;13.096;2023-01-19T15:44:29;1.60;99.90
8664;DHT22;4369;47.842;13.096;2023-01-19T15:46:55;1.70;99.90
8664;DHT22;4369;47.842;13.096;2023-01-19T15:49:23;1.70;99.90
8664;DHT22;4369;47.842;13.096;2023-01-19T15:51:52;1.70;99.90
8664;DHT22;4369;47.842;13.096;2023-01-19T15:54:19;1.70;99.90
8664;DHT22;4369;47.842;13.096;2023-01-19T15:56:45;1.60;99.90
8664;DHT22;4369;47.842;13.096;2023-01-19T15:59:12;1.30;99.90
8664;DHT22;4369;47.842;13.096;2023-01-19T16:01:39;1.10;99.90
8664;DHT22;4369;47.842;13.096;2023-01-19T16:04:07;1.00;99.90
8664;DHT22;4369;47.842;13.096;2023-01-19T16:06:35;1.00;99.90
8664;DHT22;4369;47.842;13.096;2023-01-19T16:09:04;0.90;99.90
8664;DHT22;4369;47.842;13.096;2023-01-19T16:11:32;0.90;99.90
8664;DHT22;4369;47.842;13.096;2023-01-19T16:13:59;0.90;99.90
8664;DHT22;4369;47.842;13.096;2023-01-19T16:16:26;0.90;99.90
8664;DHT22;4369;47.842;13.096;2023-01-19T16:18:53;0.90;99.90
8664;DHT22;4369;47.842;13.096;2023-01-19T16:21:21;0.90;99.90
8664;DHT22;4369;47.842;13.096;2023-01-19T16:23:48;0.80;99.90
8664;DHT22;4369;47.842;13.096;2023-01-19T16:26:30;0.80;99.90